Time;durP1;ratioP1;P1;durP2;ratioP2;P2;SDS_P1;SDS_P2;PMS_P1;PMS_P2;Temp;Humidity;BMP_temperature;BMP_pressure;BME280_temperature;BME280_humidity;BME280_pressure;Samples;Min_cycle;Max_cycle;Signal;HPM_P1;HPM_P2
2022/03/29 00:02:10;;;;;;;43.30;38.60;;;;;;;11.06;64.83;101530.94;5008852;28;20344;-84
2022/03/29 00:04:37;;;;;;;43.08;38.40;;;;;;;10.84;65.46;101495.38;5024347;28;20050;-83
2022/03/29 00:07:04;;;;;;;44.53;39.42;;;;;;;10.96;66.52;101521.97;5007685;28;20050;-83
2022/03/29 00:09:31;;;;;;;45.78;39.67;;;;;;;11.13;64.90;101516.22;5007370;28;20060;-83
2022/03/29 00:11:57;;;;;;;47.95;42.00;;;;;;;11.11;67.58;101526.09;5007285;28;20052;-84
2022/03/29 00:14:24;;;;;;;51.33;42.00;;;;;;;10.96;67.67;101500.72;4995581;28;20060;-84
2022/03/29 00:17:28;;;;;;;52.97;39.85;;;;;;;11.18;67.66;101522.03;4987475;28;20133;-83
2022/03/29 00:19:55;;;;;;;45.88;39.53;;;;;;;10.84;68.91;101502.50;4988040;28;20109;-83
2022/03/29 00:22:21;;;;;;;45.42;39.88;;;;;;;10.95;68.71;101518.47;4987372;28;20473;-83
2022/03/29 00:24:48;;;;;;;49.15;40.75;;;;;;;10.89;68.79;101506.47;4987685;28;20144;-84
2022/03/29 00:27:15;;;;;;;50.92;40.50;;;;;;;10.89;68.38;101521.59;4987348;28;20058;-84
2022/03/29 00:29:41;;;;;;;49.15;41.28;;;;;;;10.97;69.03;101519.22;4989407;28;20046;-83
2022/03/29 00:32:08;;;;;;;49.75;42.42;;;;;;;10.63;69.72;101489.00;4988040;28;20043;-84
2022/03/29 00:34:36;;;;;;;51.63;41.85;;;;;;;10.23;69.38;101426.44;4987322;28;20411;-84
2022/03/29 00:37:04;;;;;;;50.83;40.42;;;;;;;10.83;69.23;101535.34;4987515;28;20088;-82
2022/03/29 00:39:31;;;;;;;61.40;44.60;;;;;;;10.82;70.80;101529.16;4988391;28;20054;-86
2022/03/29 00:42:01;;;;;;;57.13;45.47;;;;;;;10.68;73.04;101502.81;4987605;28;20132;-84
2022/03/29 00:44:33;;;;;;;57.67;44.42;;;;;;;10.79;73.41;101521.44;4988566;28;20089;-83
2022/03/29 00:47:00;;;;;;;57.03;45.20;;;;;;;10.74;72.93;101523.59;4987434;28;20460;-84
2022/03/29 00:49:27;;;;;;;71.05;45.72;;;;;;;10.10;73.66;101415.06;4988565;28;20050;-83
2022/03/29 00:51:58;;;;;;;81.57;46.70;;;;;;;9.90;74.40;101376.72;4987296;28;20101;-84
2022/03/29 00:54:25;;;;;;;64.03;47.55;;;;;;;10.80;73.60;101512.53;4986961;28;20411;-84
2022/03/29 00:56:52;;;;;;;58.10;46.00;;;;;;;10.80;72.65;101511.66;4987162;28;20423;-84
2022/03/29 00:59:20;;;;;;;62.70;43.70;;;;;;;10.61;73.29;101485.66;4988349;28;20046;-84
2022/03/29 01:01:48;;;;;;;60.53;46.22;;;;;;;10.78;73.33;101510.94;4986745;28;20058;-83
2022/03/29 01:04:15;;;;;;;58.15;45.70;;;;;;;10.74;72.90;101499.69;4988198;28;20154;-84
2022/03/29 01:06:43;;;;;;;62.97;43.97;;;;;;;10.63;72.76;101481.91;4986975;28;20069;-83
2022/03/29 01:09:11;;;;;;;72.00;47.58;;;;;;;10.75;73.08;101498.72;4986793;28;20050;-84
2022/03/29 01:11:39;;;;;;;64.10;46.92;;;;;;;10.66;73.19;101484.34;4987001;28;20054;-84
2022/03/29 01:14:06;;;;;;;70.07;47.53;;;;;;;10.48;74.25;101465.34;4997414;28;20696;-85
2022/03/29 01:19:21;;;;;;;65.80;44.97;;;;;;;10.65;73.88;101484.44;5007454;28;20049;-84
2022/03/29 01:22:02;;;;;;;60.20;46.63;;;;;;;10.65;74.05;101471.16;5022667;28;20093;-84
2022/03/29 01:24:29;;;;;;;62.03;47.33;;;;;;;10.60;74.81;101482.13;5006177;28;20050;-84
2022/03/29 01:26:58;;;;;;;66.50;48.03;;;;;;;10.60;74.20;101460.88;5006212;28;20050;-84
2022/03/29 01:29:27;;;;;;;60.50;45.80;;;;;;;10.40;74.29;101443.81;5022023;28;20062;-83
2022/03/29 01:31:54;;;;;;;58.90;44.58;;;;;;;10.63;74.13;101478.38;5006212;28;20056;-84
2022/03/29 01:34:21;;;;;;;61.85;45.10;;;;;;;10.67;73.57;101482.53;5009736;28;20089;-86
2022/03/29 01:36:49;;;;;;;54.22;44.63;;;;;;;10.53;74.00;101457.00;5011181;28;20056;-85
2022/03/29 01:39:16;;;;;;;55.03;42.47;;;;;;;10.67;73.50;101471.91;5010594;28;20491;-83
2022/03/29 01:41:43;;;;;;;62.00;44.58;;;;;;;10.62;73.59;101477.56;5022501;28;20042;-86
2022/03/29 01:44:10;;;;;;;54.97;43.78;;;;;;;10.38;73.59;101431.59;5005801;28;20453;-85
2022/03/29 01:46:37;;;;;;;55.10;43.67;;;;;;;10.30;73.56;101420.72;5005993;28;20343;-85
2022/03/29 01:49:05;;;;;;;53.17;44.05;;;;;;;10.22;74.28;101411.50;5006804;28;20367;-84
2022/03/29 01:51:33;;;;;;;56.80;46.00;;;;;;;10.29;73.70;101422.50;5005806;28;20060;-84
2022/03/29 01:54:02;;;;;;;54.80;44.67;;;;;;;10.02;73.40;101367.88;5007047;28;20045;-84
2022/03/29 01:56:31;;;;;;;52.85;43.20;;;;;;;10.48;73.82;101449.41;5005702;28;20496;-84
2022/03/29 01:58:58;;;;;;;54.50;44.75;;;;;;;9.97;73.94;101375.31;5006927;28;20046;-84
2022/03/29 02:01:25;;;;;;;57.28;44.28;;;;;;;10.41;73.65;101442.00;5005571;28;20049;-83
2022/03/29 02:03:52;;;;;;;52.65;43.08;;;;;;;9.98;73.74;101368.22;5005998;28;20041;-84
2022/03/29 02:06:19;;;;;;;59.08;43.58;;;;;;;10.38;73.75;101432.44;5007415;28;20054;-84
2022/03/29 02:08:45;;;;;;;53.22;44.17;;;;;;;10.25;74.31;101405.97;5005937;28;20060;-84
2022/03/29 02:11:13;;;;;;;50.05;42.17;;;;;;;9.91;73.83;101349.25;5007195;28;20060;-84
2022/03/29 02:13:45;;;;;;;55.60;44.40;;;;;;;10.24;73.64;101403.41;4998214;28;20054;-84
2022/03/29 02:16:11;;;;;;;48.95;41.00;;;;;;;10.35;73.39;101415.91;4986193;28;20396;-84
2022/03/29 02:18:38;;;;;;;52.08;41.88;;;;;;;10.40;73.20;101404.00;4986594;28;20501;-83
2022/03/29 02:21:05;;;;;;;46.83;40.92;;;;;;;10.41;73.30;101394.22;4986190;28;20530;-83
2022/03/29 02:23:31;;;;;;;52.05;42.70;;;;;;;10.30;72.75;101375.63;4986222;28;20508;-84
2022/03/29 02:25:58;;;;;;;48.08;41.08;;;;;;;10.09;72.18;101330.28;4986705;28;20046;-84
2022/03/29 02:28:24;;;;;;;43.83;36.78;;;;;;;10.46;72.44;101387.63;4986363;28;20061;-84
2022/03/29 02:30:51;;;;;;;38.05;33.10;;;;;;;9.95;71.30;101283.56;4986576;28;20051;-83
2022/03/29 02:33:17;;;;;;;36.65;32.33;;;;;;;10.52;71.61;101378.31;4987945;28;20129;-83
2022/03/29 02:35:44;;;;;;;38.72;34.33;;;;;;;10.36;71.91;101368.00;4986930;28;20129;-84
2022/03/29 02:38:11;;;;;;;39.67;33.75;;;;;;;9.85;71.05;101270.13;4986273;28;20080;-84
2022/03/29 02:40:38;;;;;;;37.30;33.08;;;;;;;10.06;72.41;101334.00;4991385;28;20142;-84
2022/03/29 02:43:05;;;;;;;53.03;34.83;;;;;;;10.14;72.73;101362.59;4990421;28;20129;-84
2022/03/29 02:45:31;;;;;;;42.47;34.47;;;;;;;10.00;73.22;101337.97;4991588;28;20053;-83
2022/03/29 02:47:58;;;;;;;49.67;35.65;;;;;;;10.04;73.62;101352.69;4991148;28;20411;-83
2022/03/29 02:50:25;;;;;;;45.17;35.83;;;;;;;9.97;74.00;101353.25;4990407;28;20401;-84
2022/03/29 02:52:54;;;;;;;42.15;34.78;;;;;;;9.61;75.02;101316.09;4990309;28;20528;-83
2022/03/29 02:55:24;;;;;;;45.53;35.85;;;;;;;9.89;74.96;101358.28;4990244;28;20138;-83
2022/03/29 02:57:51;;;;;;;50.47;37.97;;;;;;;9.60;75.42;101327.66;4989995;28;20133;-84
2022/03/29 03:00:18;;;;;;;47.80;34.55;;;;;;;9.64;75.70;101328.28;4991175;28;20046;-84
2022/03/29 03:02:47;;;;;;;47.03;35.42;;;;;;;9.74;74.52;101339.06;4989243;28;20145;-86
2022/03/29 03:05:14;;;;;;;40.75;35.08;;;;;;;9.37;75.15;101272.84;4989934;28;20145;-84
2022/03/29 03:07:44;;;;;;;52.60;38.92;;;;;;;9.67;75.56;101325.41;4990875;28;20484;-84
2022/03/29 03:10:12;;;;;;;54.88;37.97;;;;;;;9.27;75.61;101258.56;4989948;28;20145;-84
2022/03/29 03:12:44;;;;;;;48.25;38.10;;;;;;;9.49;75.61;101306.41;4990047;28;20108;-84
2022/03/29 03:15:15;;;;;;;52.20;39.25;;;;;;;8.89;75.91;101193.34;4989505;28;20767;-84
2022/03/29 03:17:42;;;;;;;46.70;38.28;;;;;;;9.86;76.15;101339.97;4989868;28;20050;-84
2022/03/29 03:20:10;;;;;;;52.65;40.72;;;;;;;9.78;75.05;101317.50;4989603;28;20137;-84
2022/03/29 03:22:41;;;;;;;45.08;37.83;;;;;;;9.78;75.30;101321.94;4989585;28;20558;-83
2022/03/29 03:25:08;;;;;;;50.53;40.40;;;;;;;9.13;74.91;101196.84;4989660;28;20051;-83
2022/03/29 03:27:36;;;;;;;51.72;40.85;;;;;;;9.74;74.82;101310.72;4989331;28;20535;-83
2022/03/29 03:30:04;;;;;;;51.03;41.45;;;;;;;9.88;74.81;101324.75;4989357;28;20496;-83
2022/03/29 03:32:31;;;;;;;51.08;42.00;;;;;;;9.59;74.28;101272.94;4989393;28;20058;-84
2022/03/29 03:34:58;;;;;;;51.65;41.58;;;;;;;9.78;74.21;101312.22;4989077;28;20049;-85
2022/03/29 03:37:26;;;;;;;50.40;40.95;;;;;;;9.89;73.97;101329.13;4989676;28;20046;-84
2022/03/29 03:39:53;;;;;;;53.78;42.92;;;;;;;9.81;73.81;101316.44;4989790;28;20077;-84
2022/03/29 03:42:20;;;;;;;47.90;42.08;;;;;;;9.56;73.07;101275.84;4989494;28;20141;-83
2022/03/29 03:44:47;;;;;;;53.28;42.55;;;;;;;9.77;72.30;101314.97;4989500;28;20050;-82
2022/03/29 03:47:13;;;;;;;51.72;42.97;;;;;;;9.62;72.52;101296.56;4988499;28;20057;-83
2022/03/29 03:49:40;;;;;;;50.28;43.42;;;;;;;9.48;71.54;101275.53;4990471;28;20054;-83
2022/03/29 03:52:07;;;;;;;51.85;43.47;;;;;;;9.61;71.01;101300.19;4988257;28;20050;-83
2022/03/29 03:54:35;;;;;;;56.50;43.80;;;;;;;9.56;70.88;101275.84;4989335;28;20054;-84
2022/03/29 03:57:03;;;;;;;53.10;44.80;;;;;;;9.34;70.60;101238.59;4989026;28;20125;-84
2022/03/29 03:59:29;;;;;;;54.85;43.50;;;;;;;9.57;70.30;101277.50;4988810;28;20140;-84
2022/03/29 04:01:56;;;;;;;50.55;41.72;;;;;;;9.44;70.55;101252.84;4988942;28;20145;-84
2022/03/29 04:04:23;;;;;;;48.67;41.78;;;;;;;9.49;70.36;101266.66;4991439;28;20140;-84
2022/03/29 04:06:52;;;;;;;48.22;41.05;;;;;;;9.66;69.58;101285.72;4992043;28;20111;-83
2022/03/29 04:09:19;;;;;;;49.05;40.58;;;;;;;9.57;69.65;101285.47;4990629;28;20058;-84
2022/03/29 04:11:45;;;;;;;49.85;41.53;;;;;;;9.56;68.57;101283.78;4990112;28;20052;-83
2022/03/29 04:14:12;;;;;;;47.40;40.20;;;;;;;9.24;68.22;101227.84;5001463;28;20530;-83
2022/03/29 04:16:39;;;;;;;45.17;38.03;;;;;;;9.29;68.41;101246.88;5010905;28;20065;-84
2022/03/29 04:19:06;;;;;;;48.88;39.42;;;;;;;9.62;68.18;101307.19;5014775;28;20050;-84
2022/03/29 04:21:33;;;;;;;47.42;39.58;;;;;;;9.15;67.53;101234.66;5032572;28;20050;-84
2022/03/29 04:24:00;;;;;;;47.30;39.78;;;;;;;9.11;67.97;101230.53;5013362;28;20052;-82
2022/03/29 04:26:26;;;;;;;48.15;40.60;;;;;;;9.01;67.67;101216.28;5008190;28;20053;-84
2022/03/29 04:28:53;;;;;;;50.70;39.95;;;;;;;9.52;68.11;101308.81;5007608;28;20470;-83
2022/03/29 04:31:19;;;;;;;44.47;37.35;;;;;;;9.30;66.68;101268.94;5008907;28;20050;-82
2022/03/29 04:33:46;;;;;;;45.50;36.50;;;;;;;9.19;66.85;101249.34;5008803;28;20133;-83
2022/03/29 04:36:12;;;;;;;43.00;35.45;;;;;;;9.38;66.63;101282.47;5024260;28;20138;-83
2022/03/29 04:38:39;;;;;;;40.42;35.35;;;;;;;8.76;66.50;101181.00;5008128;28;20073;-83
2022/03/29 04:41:06;;;;;;;43.35;35.63;;;;;;;9.44;66.32;101302.38;5023702;28;20686;-84
2022/03/29 04:43:33;;;;;;;41.63;34.33;;;;;;;9.50;66.38;101307.25;5007113;28;20500;-84
2022/03/29 04:46:01;;;;;;;40.83;33.47;;;;;;;9.37;65.98;101297.53;5006968;28;20598;-83
2022/03/29 04:48:29;;;;;;;40.08;34.38;;;;;;;9.47;65.39;101321.56;5006832;28;20141;-83
2022/03/29 04:50:56;;;;;;;34.42;30.40;;;;;;;9.48;65.73;101315.28;5006760;28;20081;-84
2022/03/29 04:53:22;;;;;;;34.72;30.95;;;;;;;9.44;65.61;101308.50;5006827;28;20125;-83
2022/03/29 04:55:50;;;;;;;33.22;29.50;;;;;;;9.10;66.75;101252.69;5007029;28;20140;-83
2022/03/29 04:58:18;;;;;;;34.97;30.30;;;;;;;9.34;67.77;101287.13;5003603;28;20451;-83
2022/03/29 05:00:44;;;;;;;33.80;29.23;;;;;;;9.38;68.69;101295.72;4985597;28;20328;-84
2022/03/29 05:03:11;;;;;;;35.15;28.38;;;;;;;9.44;70.48;101308.50;4985836;28;20428;-84
2022/03/29 05:05:38;;;;;;;36.45;30.20;;;;;;;9.47;70.86;101302.16;4987026;28;20038;-83
2022/03/29 05:08:05;;;;;;;35.90;30.23;;;;;;;9.31;71.54;101275.94;4986708;28;20050;-83
2022/03/29 05:10:32;;;;;;;37.58;27.98;;;;;;;9.49;72.20;101305.53;4985891;28;20064;-84
2022/03/29 05:12:58;;;;;;;39.03;29.13;;;;;;;9.52;73.13;101306.16;4986759;28;20058;-85
2022/03/29 05:15:25;;;;;;;32.63;27.75;;;;;;;9.52;72.51;101300.03;4985489;28;20050;-84
2022/03/29 05:17:52;;;;;;;36.97;27.10;;;;;;;9.55;73.45;101299.78;4985787;28;20081;-83
2022/03/29 05:20:18;;;;;;;37.80;28.67;;;;;;;9.16;73.57;101236.34;4984148;28;20056;-83
2022/03/29 05:22:51;;;;;;;39.42;29.25;;;;;;;8.94;74.66;101189.38;4984176;28;20054;-84
2022/03/29 05:25:21;;;;;;;37.30;29.33;;;;;;;9.46;74.36;101268.66;4984826;28;20520;-83
2022/03/29 05:27:50;;;;;;;37.28;28.30;;;;;;;9.76;74.43;101307.97;4985059;28;20058;-84
2022/03/29 05:30:17;;;;;;;38.50;29.63;;;;;;;9.82;74.20;101302.19;4985243;28;20054;-84
2022/03/29 05:32:43;;;;;;;39.83;29.85;;;;;;;9.72;74.14;101285.28;4985686;28;20054;-84
2022/03/29 05:35:11;;;;;;;35.75;28.33;;;;;;;9.90;73.69;101291.84;4986866;28;20066;-84
2022/03/29 05:37:40;;;;;;;38.78;28.10;;;;;;;9.65;73.74;101253.09;4985477;28;20159;-84
2022/03/29 05:40:09;;;;;;;38.15;28.67;;;;;;;9.69;74.45;101248.41;4984757;28;20061;-84
2022/03/29 05:42:45;;;;;;;36.10;27.02;;;;;;;9.91;74.51;101287.41;4985145;28;20468;-84
2022/03/29 05:45:13;;;;;;;36.25;28.27;;;;;;;9.96;75.64;101294.06;4985588;28;20254;-84
2022/03/29 05:50:27;;;;;;;40.85;29.27;;;;;;;9.81;75.53;101255.44;4986068;28;20081;-84
2022/03/29 05:52:55;;;;;;;37.22;27.48;;;;;;;9.79;74.84;101249.41;4975836;28;20065;-84
2022/03/29 05:55:23;;;;;;;37.15;27.83;;;;;;;10.13;74.99;101305.22;4965901;28;20136;-85
2022/03/29 05:57:51;;;;;;;39.47;30.15;;;;;;;10.15;75.25;101306.78;4982170;28;20063;-84
2022/03/29 06:00:23;;;;;;;39.85;28.92;;;;;;;10.26;74.72;101309.44;4982162;28;20047;-85
2022/03/29 06:02:51;;;;;;;38.28;28.55;;;;;;;10.37;74.55;101306.03;4965578;28;20440;-83
2022/03/29 06:05:18;;;;;;;47.03;29.85;;;;;;;10.35;75.35;101307.94;4965482;28;20051;-85
2022/03/29 06:07:45;;;;;;;45.00;29.70;;;;;;;10.40;75.31;101308.44;4966745;28;20051;-86
2022/03/29 06:10:12;;;;;;;43.63;28.23;;;;;;;10.50;74.61;101302.41;4965472;28;20058;-85
2022/03/29 06:12:39;;;;;;;44.00;28.10;;;;;;;10.54;74.40;101294.09;4970535;28;20116;-85
2022/03/29 06:15:11;;;;;;;36.80;26.88;;;;;;;10.56;74.49;101288.66;4980304;28;20528;-84
2022/03/29 06:17:38;;;;;;;38.22;26.92;;;;;;;10.10;74.60;101217.88;4980996;28;20299;-85
2022/03/29 06:20:09;;;;;;;37.20;27.52;;;;;;;10.69;74.52;101318.59;4985005;28;20129;-83
2022/03/29 06:22:42;;;;;;;41.33;27.10;;;;;;;10.78;74.31;101317.91;4984343;28;20046;-84
2022/03/29 06:25:10;;;;;;;39.20;27.17;;;;;;;10.83;74.04;101326.34;4985030;28;20043;-84
2022/03/29 06:27:37;;;;;;;36.80;27.13;;;;;;;10.88;73.90;101318.03;4985379;28;20503;-84
2022/03/29 06:30:05;;;;;;;41.83;29.00;;;;;;;10.90;74.65;101324.91;4987590;28;20058;-84
2022/03/29 06:32:32;;;;;;;40.85;28.20;;;;;;;10.97;74.37;101311.13;4986036;28;20054;-84
2022/03/29 06:34:59;;;;;;;36.83;27.45;;;;;;;10.73;73.75;101276.72;4985546;28;20317;-84
2022/03/29 06:37:26;;;;;;;37.72;27.95;;;;;;;10.96;74.37;101315.59;4986119;28;20408;-82
2022/03/29 06:39:53;;;;;;;42.17;28.73;;;;;;;10.91;73.84;101307.97;4986291;28;20174;-84
2022/03/29 06:42:20;;;;;;;35.30;28.50;;;;;;;11.01;74.11;101307.25;4985504;28;20381;-83
2022/03/29 06:44:46;;;;;;;36.20;28.92;;;;;;;11.06;74.58;101303.25;4985526;28;20620;-84
2022/03/29 06:47:15;;;;;;;36.60;29.60;;;;;;;11.15;73.26;101311.47;4985365;28;20412;-83
2022/03/29 06:49:42;;;;;;;41.25;29.65;;;;;;;10.92;73.18;101271.63;4999903;28;20528;-84
2022/03/29 06:52:09;;;;;;;42.30;30.10;;;;;;;11.16;73.15;101315.81;5000285;28;20050;-82
2022/03/29 06:54:35;;;;;;;40.63;30.98;;;;;;;11.00;73.23;101292.28;4984389;28;20054;-81
2022/03/29 06:57:02;;;;;;;39.13;30.85;;;;;;;11.23;72.88;101317.84;4985158;28;20588;-83
2022/03/29 06:59:28;;;;;;;45.42;31.38;;;;;;;11.19;72.75;101303.13;4985417;28;20149;-81
2022/03/29 07:02:11;;;;;;;42.42;32.97;;;;;;;11.28;72.57;101307.69;4983968;28;20295;-82
2022/03/29 07:04:38;;;;;;;43.40;34.05;;;;;;;11.26;72.12;101304.34;4984527;28;20612;-82
2022/03/29 07:07:05;;;;;;;45.28;34.88;;;;;;;11.38;71.72;101305.13;4985933;28;20131;-81
2022/03/29 07:12:18;;;;;;;46.63;34.67;;;;;;;11.38;71.74;101285.69;4987091;28;20112;-82
2022/03/29 07:14:44;;;;;;;47.58;35.33;;;;;;;11.67;71.30;101329.34;5018260;28;20133;-81
2022/03/29 07:17:13;;;;;;;48.63;37.78;;;;;;;11.46;71.33;101280.59;4991945;28;20407;-82
2022/03/29 07:19:40;;;;;;;47.20;35.85;;;;;;;11.46;71.21;101291.25;4984928;28;20065;-82
2022/03/29 07:22:07;;;;;;;46.63;35.85;;;;;;;11.33;71.10;101276.28;4985015;28;20066;-81
2022/03/29 07:24:34;;;;;;;46.42;36.60;;;;;;;11.57;71.25;101309.81;4986641;28;20058;-83
2022/03/29 07:27:02;;;;;;;49.08;37.15;;;;;;;11.33;70.89;101252.38;4988191;28;20112;-81
2022/03/29 07:29:29;;;;;;;44.85;36.70;;;;;;;11.85;70.79;101320.84;4989100;28;20125;-83
2022/03/29 07:31:56;;;;;;;46.58;37.20;;;;;;;11.83;70.70;101322.78;4990761;28;20054;-85
2022/03/29 07:34:22;;;;;;;48.92;37.95;;;;;;;11.93;70.27;101321.06;4991270;28;20065;-83
2022/03/29 07:36:49;;;;;;;51.10;38.17;;;;;;;12.11;70.03;101334.66;4990582;28;20234;-83
2022/03/29 07:39:15;;;;;;;51.08;38.95;;;;;;;12.05;70.10;101306.75;4991070;28;20492;-83
2022/03/29 07:41:42;;;;;;;45.45;35.58;;;;;;;11.64;70.45;101246.31;4988953;28;20114;-84
2022/03/29 07:44:09;;;;;;;52.88;38.70;;;;;;;12.15;69.82;101318.28;5005907;28;20053;-83
2022/03/29 07:46:36;;;;;;;46.67;38.30;;;;;;;12.01;70.24;101292.00;5008434;28;20046;-83
2022/03/29 07:49:02;;;;;;;48.42;37.78;;;;;;;12.22;69.42;101325.78;5010421;28;20563;-82
2022/03/29 07:51:49;;;;;;;51.65;36.75;;;;;;;12.10;69.13;101301.88;5010585;28;20404;-83
2022/03/29 07:54:16;;;;;;;49.05;36.00;;;;;;;12.25;69.49;101330.84;5010631;28;20112;-82
2022/03/29 07:56:42;;;;;;;47.83;37.72;;;;;;;11.92;69.67;101260.88;5010696;28;20087;-83
2022/03/29 07:59:09;;;;;;;48.33;38.35;;;;;;;12.55;68.51;101322.91;5021607;28;20070;-84
2022/03/29 08:01:36;;;;;;;47.90;38.20;;;;;;;12.48;68.30;101310.25;5022850;28;20113;-84
2022/03/29 08:04:06;;;;;;;47.13;36.60;;;;;;;12.11;68.66;101245.03;5016203;28;20450;-83
2022/03/29 08:06:35;;;;;;;47.90;37.90;;;;;;;12.44;68.68;101304.34;5009688;28;20060;-83
2022/03/29 08:09:02;;;;;;;45.55;37.58;;;;;;;12.38;68.70;101281.75;5009175;28;20052;-83
2022/03/29 08:11:29;;;;;;;43.92;36.97;;;;;;;12.31;68.26;101251.28;5008390;28;20397;-82
2022/03/29 08:13:58;;;;;;;51.20;39.03;;;;;;;12.68;68.02;101298.72;5009533;28;20129;-84
2022/03/29 08:16:27;;;;;;;48.70;38.53;;;;;;;12.45;67.18;101236.81;5008027;28;20096;-82
2022/03/29 08:18:57;;;;;;;48.90;38.88;;;;;;;12.80;67.75;101299.47;5009090;28;20136;-83
2022/03/29 08:24:11;;;;;;;46.53;36.53;;;;;;;13.09;67.09;101306.72;5009143;28;20062;-82
2022/03/29 08:26:38;;;;;;;45.35;35.67;;;;;;;13.12;66.52;101288.63;5023496;28;20050;-83
2022/03/29 08:29:05;;;;;;;40.10;35.45;;;;;;;13.17;65.62;101296.22;5008596;28;20491;-82
2022/03/29 08:31:32;;;;;;;47.33;36.13;;;;;;;12.90;65.78;101255.03;5007504;28;20129;-83
2022/03/29 08:33:58;;;;;;;42.00;34.08;;;;;;;13.16;65.64;101278.56;5007463;28;20530;-82
2022/03/29 08:36:25;;;;;;;40.45;34.15;;;;;;;13.26;65.75;101290.91;5006904;28;20085;-83
2022/03/29 08:38:51;;;;;;;43.97;34.55;;;;;;;13.28;65.25;101266.81;5007013;28;20216;-82
2022/03/29 08:41:19;;;;;;;45.67;35.78;;;;;;;13.37;64.47;101268.63;5007190;28;20137;-83
2022/03/29 08:43:46;;;;;;;43.10;36.08;;;;;;;13.49;65.32;101292.53;5007997;28;20153;-83
2022/03/29 08:46:12;;;;;;;48.60;35.58;;;;;;;13.28;65.09;101249.97;5023631;28;20096;-84
2022/03/29 08:48:41;;;;;;;44.30;35.50;;;;;;;13.65;65.10;101274.16;5007969;28;20054;-83
2022/03/29 08:51:08;;;;;;;44.35;36.20;;;;;;;13.61;64.84;101275.41;5008401;28;20487;-83
2022/03/29 08:53:55;;;;;;;44.25;34.95;;;;;;;13.68;64.54;101250.69;5007634;28;20045;-84
2022/03/29 08:56:22;;;;;;;45.95;34.53;;;;;;;13.90;64.42;101278.91;5008270;28;20100;-82
2022/03/29 08:58:49;;;;;;;44.45;36.15;;;;;;;13.83;64.81;101277.78;5023679;28;20445;-83
2022/03/29 09:01:22;;;;;;;45.63;36.10;;;;;;;13.00;65.41;101125.31;5007850;28;20436;-84
2022/03/29 09:04:16;;;;;;;42.75;36.13;;;;;;;13.43;65.03;101196.09;5007742;28;20060;-82
2022/03/29 09:07:01;;;;;;;40.80;34.60;;;;;;;13.44;64.28;101181.75;5007120;28;20389;-83
2022/03/29 09:09:35;;;;;;;41.97;34.92;;;;;;;14.08;64.48;101260.38;5022257;28;20492;-84
2022/03/29 09:12:22;;;;;;;43.00;35.05;;;;;;;14.13;64.44;101249.25;5006706;28;20129;-82
2022/03/29 09:14:57;;;;;;;41.60;35.55;;;;;;;14.37;63.84;101253.25;4990262;28;20046;-82
2022/03/29 09:17:35;;;;;;;45.85;36.25;;;;;;;14.38;63.92;101254.94;4986837;28;20145;-83
2022/03/29 09:20:08;;;;;;;42.47;34.67;;;;;;;14.31;63.53;101242.16;4987975;28;20134;-82
2022/03/29 09:22:44;;;;;;;39.50;34.22;;;;;;;13.62;63.49;101130.38;4986526;28;20046;-82
2022/03/29 09:25:14;;;;;;;49.08;36.95;;;;;;;14.46;63.66;101252.38;4986782;28;20484;-82
2022/03/29 09:28:00;;;;;;;48.33;39.08;;;;;;;14.55;63.83;101256.88;4987251;28;20054;-83
2022/03/29 09:30:41;;;;;;;47.53;38.10;;;;;;;14.04;63.78;101173.53;4986178;28;20468;-84
2022/03/29 09:33:16;;;;;;;48.25;37.65;;;;;;;14.62;63.69;101235.78;4983736;28;20480;-84
2022/03/29 09:35:58;;;;;;;42.22;35.67;;;;;;;14.75;63.15;101241.59;4984384;28;20058;-84
2022/03/29 09:38:34;;;;;;;43.90;36.05;;;;;;;14.91;62.17;101230.28;4989996;28;20292;-84
2022/03/29 09:41:03;;;;;;;46.03;35.83;;;;;;;15.05;61.48;101232.44;4985383;28;20051;-82
2022/03/29 09:43:36;;;;;;;45.35;36.00;;;;;;;14.91;61.49;101199.03;4983773;28;20098;-82
2022/03/29 09:46:03;;;;;;;40.47;34.83;;;;;;;15.05;60.43;101183.47;4983927;28;20054;-84
2022/03/29 09:48:44;;;;;;;41.38;35.55;;;;;;;15.37;59.48;101221.25;4984277;28;20078;-82
2022/03/29 09:51:12;;;;;;;41.67;33.55;;;;;;;15.37;59.70;101212.38;4986737;28;20488;-83
2022/03/29 09:53:43;;;;;;;41.15;33.47;;;;;;;15.65;59.66;101201.56;4984458;28;20145;-83
2022/03/29 09:56:20;;;;;;;41.10;33.40;;;;;;;15.80;59.68;101218.78;4984818;28;20050;-83
2022/03/29 09:59:14;;;;;;;38.33;32.97;;;;;;;15.99;58.61;101196.31;4999123;28;20516;-84
2022/03/29 10:01:49;;;;;;;38.40;32.28;;;;;;;16.26;57.42;101214.06;4985629;28;20129;-84
2022/03/29 10:04:17;;;;;;;42.03;32.83;;;;;;;16.33;56.22;101216.97;4981285;28;20061;-84
2022/03/29 10:06:47;;;;;;;36.45;32.55;;;;;;;16.12;56.51;101177.19;4982799;28;20137;-84
2022/03/29 10:09:26;;;;;;;36.97;31.85;;;;;;;16.36;56.57;101201.44;4983699;28;20409;-83
2022/03/29 10:12:04;;;;;;;36.92;31.55;;;;;;;16.44;56.12;101203.31;4984676;28;20226;-83
2022/03/29 10:14:34;;;;;;;34.95;30.60;;;;;;;16.38;55.55;101188.72;4985898;28;20547;-83
2022/03/29 10:17:01;;;;;;;33.97;30.08;;;;;;;16.54;55.67;101176.38;4985540;28;20144;-84
2022/03/29 10:19:29;;;;;;;32.63;29.15;;;;;;;16.30;55.17;101121.66;4984620;28;20378;-84
2022/03/29 10:21:59;;;;;;;42.15;32.13;;;;;;;16.79;54.98;101178.16;4984423;28;20151;-82
2022/03/29 10:24:27;;;;;;;35.15;30.98;;;;;;;16.85;54.33;101169.47;4984454;28;20046;-82
2022/03/29 10:26:56;;;;;;;37.50;31.33;;;;;;;16.51;54.51;101098.97;4984895;28;20142;-83
2022/03/29 10:29:23;;;;;;;35.40;31.58;;;;;;;17.09;54.52;101170.53;4984822;28;20069;-83
2022/03/29 10:31:55;;;;;;;35.10;29.55;;;;;;;16.69;54.41;101086.28;4986011;28;20094;-84
2022/03/29 10:34:23;;;;;;;35.17;30.77;;;;;;;17.29;54.10;101168.38;4985419;28;20046;-83
2022/03/29 10:37:09;;;;;;;36.63;29.60;;;;;;;17.32;53.66;101167.19;4986844;28;20281;-83
2022/03/29 10:40:03;;;;;;;34.67;29.70;;;;;;;17.42;53.84;101157.97;4986602;28;20298;-83
2022/03/29 10:42:44;;;;;;;34.13;29.50;;;;;;;17.53;53.76;101151.44;4988094;28;20137;-83
2022/03/29 10:45:23;;;;;;;35.58;31.45;;;;;;;17.70;53.25;101131.63;4985739;28;20061;-84
2022/03/29 10:48:05;;;;;;;38.13;31.15;;;;;;;17.83;52.39;101138.34;5000972;28;20054;-83
2022/03/29 10:50:54;;;;;;;36.40;28.95;;;;;;;17.98;51.20;101135.78;4984196;28;20046;-84
2022/03/29 10:53:27;;;;;;;32.67;29.15;;;;;;;17.38;51.30;101018.91;4983994;28;20403;-83
2022/03/29 10:56:12;;;;;;;38.28;29.95;;;;;;;17.91;50.81;101071.16;4985350;28;20145;-83
2022/03/29 10:59:06;;;;;;;34.33;30.05;;;;;;;18.26;50.96;101109.34;4984608;28;20055;-83
2022/03/29 11:01:35;;;;;;;30.60;27.30;;;;;;;18.37;50.87;101108.94;4985394;28;20061;-84
2022/03/29 11:04:16;;;;;;;30.58;27.55;;;;;;;18.39;50.12;101114.97;4988846;28;20243;-84
2022/03/29 11:07:04;;;;;;;35.28;27.33;;;;;;;18.41;49.76;101107.56;4988977;28;20552;-84
2022/03/29 11:09:32;;;;;;;31.27;26.75;;;;;;;18.42;49.85;101087.72;4988462;28;20137;-82
2022/03/29 11:12:00;;;;;;;32.25;27.40;;;;;;;18.56;49.54;101081.59;4989256;28;20472;-82
2022/03/29 11:14:37;;;;;;;31.20;27.02;;;;;;;18.63;49.20;101099.75;5005246;28;20054;-83
2022/03/29 11:17:08;;;;;;;25.42;22.60;;;;;;;18.76;49.77;101094.63;4989899;28;20093;-83
2022/03/29 11:19:44;;;;;;;27.38;24.50;;;;;;;18.87;50.15;101080.78;4988467;28;20057;-82
2022/03/29 11:22:28;;;;;;;24.85;22.40;;;;;;;18.87;48.99;101026.97;4990358;28;20477;-81
2022/03/29 11:25:00;;;;;;;24.35;21.30;;;;;;;18.96;48.42;101014.31;4991257;28;20050;-83
2022/03/29 11:27:32;;;;;;;22.65;20.27;;;;;;;19.57;47.91;101081.53;4989412;28;20057;-82
2022/03/29 11:30:03;;;;;;;21.85;19.83;;;;;;;19.33;48.09;101029.59;4988745;28;20363;-84
2022/03/29 11:32:31;;;;;;;24.08;21.33;;;;;;;19.61;47.53;101063.97;4989452;28;20386;-84
2022/03/29 11:34:58;;;;;;;24.48;22.02;;;;;;;19.58;47.52;101038.25;4991506;28;20052;-83